Etusivu
METAR-TAF:

METAR-TAF

Lentoasemat :

Marshfield Municipal Airport

Marshfield, Wisconsin, Yhdysvallat

Leveyspiiri: 44-38-17N, Pituuspiiri: 090-11-15W, korkeus merenpinnasta: 389 m

Tämänhetkinen sää

Tämä raportti tehtiin 23 minuuttia sitten, kello 20.54 UTC
Tuuli 8 kn etelästä/kaakosta puuskistuen 19 kn:hen
Lämpötila 3°C
Kosteus 65%
Ilmanpaine 1022 hPa
Näkyvyys: 16.1 km
selkeää

METAR: KMFI 162054Z AUTO 16008G19KT 10SM CLR 03/M03 A3017 RMK AO2 SLP235 T00331033 57025

Aika: 15:17 (21:17 UTC)


TAF: puuttuu

Säähavainnot ja -ennusteet yli 4000 lentoasemalta (METAR- ja TAF-raportit).

Käytössä olevat sääasemat on merkitty karttaan keltaisilla ja punaisilla pisteillä.

Aseta hiiri pisteen päälle nähdäksesi sääaseman nimen.

Klikkaa sitten nähdäksesi säähavainnot ja -ennusteet.

Kartan vaihtaminen: klikkaa mustalla rastilla varustettuja vihreitä pisteitä, niin voit zoomata sisään; viivalla varustettua vihreää pistettä, niin voit zoomata ulos tai vihreitä nuolia, niin pääset viereisille kartoille.


METAR-TAF: